sensor_id;sensor_type;location;lat;lon;timestamp;P1;durP1;ratioP1;P2;durP2;ratioP2
57029;SDS011;42920;45.306;20.448;2023-03-21T00:00:29;28.35;;;19.17;;
57029;SDS011;42920;45.306;20.448;2023-03-21T00:02:55;28.02;;;17.33;;
57029;SDS011;42920;45.306;20.448;2023-03-21T00:05:21;27.25;;;18.83;;
57029;SDS011;42920;45.306;20.448;2023-03-21T00:07:47;35.30;;;21.05;;
57029;SDS011;42920;45.306;20.448;2023-03-21T00:10:12;26.90;;;18.45;;
57029;SDS011;42920;45.306;20.448;2023-03-21T00:12:38;35.75;;;21.17;;
57029;SDS011;42920;45.306;20.448;2023-03-21T00:15:05;32.75;;;20.80;;
57029;SDS011;42920;45.306;20.448;2023-03-21T00:17:31;26.13;;;18.42;;
57029;SDS011;42920;45.306;20.448;2023-03-21T00:20:00;34.30;;;20.15;;
57029;SDS011;42920;45.306;20.448;2023-03-21T00:22:32;31.60;;;20.27;;
57029;SDS011;42920;45.306;20.448;2023-03-21T00:24:58;30.85;;;19.50;;
57029;SDS011;42920;45.306;20.448;2023-03-21T00:27:24;31.95;;;19.30;;
57029;SDS011;42920;45.306;20.448;2023-03-21T00:29:51;26.08;;;17.85;;
57029;SDS011;42920;45.306;20.448;2023-03-21T00:32:18;34.10;;;19.42;;
57029;SDS011;42920;45.306;20.448;2023-03-21T00:34:45;28.88;;;17.90;;
57029;SDS011;42920;45.306;20.448;2023-03-21T00:37:11;27.38;;;19.70;;
57029;SDS011;42920;45.306;20.448;2023-03-21T00:39:41;28.40;;;18.00;;
57029;SDS011;42920;45.306;20.448;2023-03-21T00:42:08;31.80;;;18.88;;
57029;SDS011;42920;45.306;20.448;2023-03-21T00:44:35;29.60;;;19.65;;
57029;SDS011;42920;45.306;20.448;2023-03-21T00:47:02;32.08;;;19.60;;
57029;SDS011;42920;45.306;20.448;2023-03-21T00:49:29;28.13;;;18.98;;
57029;SDS011;42920;45.306;20.448;2023-03-21T00:52:00;31.50;;;19.15;;
57029;SDS011;42920;45.306;20.448;2023-03-21T00:54:28;31.77;;;19.85;;
57029;SDS011;42920;45.306;20.448;2023-03-21T00:56:54;30.60;;;18.42;;
57029;SDS011;42920;45.306;20.448;2023-03-21T00:59:20;31.02;;;19.20;;
57029;SDS011;42920;45.306;20.448;2023-03-21T01:01:46;29.92;;;18.33;;
57029;SDS011;42920;45.306;20.448;2023-03-21T01:04:12;29.77;;;19.38;;
57029;SDS011;42920;45.306;20.448;2023-03-21T01:06:41;29.60;;;18.90;;
57029;SDS011;42920;45.306;20.448;2023-03-21T01:09:11;25.60;;;18.70;;
57029;SDS011;42920;45.306;20.448;2023-03-21T01:11:41;26.63;;;18.40;;
57029;SDS011;42920;45.306;20.448;2023-03-21T01:14:07;26.48;;;19.23;;
57029;SDS011;42920;45.306;20.448;2023-03-21T01:16:33;32.63;;;20.30;;
57029;SDS011;42920;45.306;20.448;2023-03-21T01:18:59;33.40;;;19.27;;
57029;SDS011;42920;45.306;20.448;2023-03-21T01:21:25;33.25;;;21.30;;
57029;SDS011;42920;45.306;20.448;2023-03-21T01:23:51;29.52;;;19.40;;
57029;SDS011;42920;45.306;20.448;2023-03-21T01:26:16;31.13;;;20.17;;
57029;SDS011;42920;45.306;20.448;2023-03-21T01:28:43;25.95;;;17.77;;
57029;SDS011;42920;45.306;20.448;2023-03-21T01:31:11;28.45;;;18.85;;
57029;SDS011;42920;45.306;20.448;2023-03-21T01:33:38;27.17;;;19.45;;
57029;SDS011;42920;45.306;20.448;2023-03-21T01:36:04;26.92;;;19.90;;
57029;SDS011;42920;45.306;20.448;2023-03-21T01:38:31;27.20;;;18.27;;
57029;SDS011;42920;45.306;20.448;2023-03-21T01:40:58;29.85;;;18.60;;
57029;SDS011;42920;45.306;20.448;2023-03-21T01:43:32;28.92;;;19.52;;
57029;SDS011;42920;45.306;20.448;2023-03-21T01:48:28;26.00;;;18.42;;
57029;SDS011;42920;45.306;20.448;2023-03-21T01:50:54;32.38;;;18.17;;
57029;SDS011;42920;45.306;20.448;2023-03-21T01:53:23;30.35;;;18.63;;
57029;SDS011;42920;45.306;20.448;2023-03-21T01:56:02;27.52;;;19.27;;
57029;SDS011;42920;45.306;20.448;2023-03-21T01:58:32;29.10;;;18.80;;
57029;SDS011;42920;45.306;20.448;2023-03-21T02:00:59;29.15;;;19.67;;
57029;SDS011;42920;45.306;20.448;2023-03-21T02:03:27;30.42;;;19.70;;
57029;SDS011;42920;45.306;20.448;2023-03-21T02:06:03;30.20;;;19.48;;
57029;SDS011;42920;45.306;20.448;2023-03-21T02:08:33;33.45;;;19.80;;
57029;SDS011;42920;45.306;20.448;2023-03-21T02:10:59;25.65;;;17.95;;
57029;SDS011;42920;45.306;20.448;2023-03-21T02:13:25;30.02;;;18.60;;
57029;SDS011;42920;45.306;20.448;2023-03-21T02:15:54;30.10;;;18.80;;
57029;SDS011;42920;45.306;20.448;2023-03-21T02:24:07;26.10;;;19.33;;
57029;SDS011;42920;45.306;20.448;2023-03-21T02:32:20;25.60;;;18.05;;
57029;SDS011;42920;45.306;20.448;2023-03-21T02:34:58;32.60;;;20.63;;
57029;SDS011;42920;45.306;20.448;2023-03-21T02:37:37;28.95;;;18.55;;
57029;SDS011;42920;45.306;20.448;2023-03-21T02:48:39;27.92;;;18.80;;
57029;SDS011;42920;45.306;20.448;2023-03-21T02:51:11;25.05;;;18.58;;
57029;SDS011;42920;45.306;20.448;2023-03-21T02:53:40;31.90;;;19.45;;
57029;SDS011;42920;45.306;20.448;2023-03-21T02:56:10;29.92;;;19.27;;
57029;SDS011;42920;45.306;20.448;2023-03-21T02:58:36;29.95;;;19.58;;
57029;SDS011;42920;45.306;20.448;2023-03-21T03:01:04;30.58;;;19.42;;
57029;SDS011;42920;45.306;20.448;2023-03-21T03:03:33;25.95;;;17.98;;
57029;SDS011;42920;45.306;20.448;2023-03-21T03:06:01;29.63;;;21.27;;
57029;SDS011;42920;45.306;20.448;2023-03-21T03:08:42;26.42;;;19.63;;
57029;SDS011;42920;45.306;20.448;2023-03-21T03:11:21;25.75;;;19.15;;
57029;SDS011;42920;45.306;20.448;2023-03-21T03:16:37;33.30;;;18.77;;
57029;SDS011;42920;45.306;20.448;2023-03-21T03:19:24;27.85;;;19.02;;
57029;SDS011;42920;45.306;20.448;2023-03-21T03:21:57;26.83;;;19.92;;
57029;SDS011;42920;45.306;20.448;2023-03-21T03:24:30;27.90;;;21.65;;
57029;SDS011;42920;45.306;20.448;2023-03-21T03:29:36;28.45;;;19.45;;
57029;SDS011;42920;45.306;20.448;2023-03-21T03:35:04;28.40;;;20.08;;
57029;SDS011;42920;45.306;20.448;2023-03-21T03:37:31;30.92;;;20.42;;
57029;SDS011;42920;45.306;20.448;2023-03-21T03:45:15;29.60;;;20.15;;
57029;SDS011;42920;45.306;20.448;2023-03-21T03:50:28;27.88;;;20.60;;
57029;SDS011;42920;45.306;20.448;2023-03-21T03:53:02;28.95;;;18.85;;
57029;SDS011;42920;45.306;20.448;2023-03-21T03:55:42;29.75;;;19.50;;
57029;SDS011;42920;45.306;20.448;2023-03-21T03:58:08;28.85;;;19.67;;
57029;SDS011;42920;45.306;20.448;2023-03-21T04:00:34;27.95;;;20.02;;
57029;SDS011;42920;45.306;20.448;2023-03-21T04:03:01;35.33;;;20.27;;
57029;SDS011;42920;45.306;20.448;2023-03-21T04:05:27;30.17;;;20.48;;
57029;SDS011;42920;45.306;20.448;2023-03-21T04:07:53;31.35;;;21.17;;
57029;SDS011;42920;45.306;20.448;2023-03-21T04:10:19;28.10;;;19.55;;
57029;SDS011;42920;45.306;20.448;2023-03-21T04:12:46;33.80;;;21.05;;
57029;SDS011;42920;45.306;20.448;2023-03-21T04:15:12;35.72;;;22.17;;
57029;SDS011;42920;45.306;20.448;2023-03-21T04:17:38;27.98;;;20.90;;
57029;SDS011;42920;45.306;20.448;2023-03-21T04:20:04;32.33;;;20.80;;
57029;SDS011;42920;45.306;20.448;2023-03-21T04:22:32;35.22;;;21.35;;
57029;SDS011;42920;45.306;20.448;2023-03-21T04:24:58;32.90;;;19.80;;
57029;SDS011;42920;45.306;20.448;2023-03-21T04:27:25;28.90;;;19.50;;
57029;SDS011;42920;45.306;20.448;2023-03-21T04:29:51;32.55;;;20.35;;
57029;SDS011;42920;45.306;20.448;2023-03-21T04:32:17;26.85;;;18.98;;
57029;SDS011;42920;45.306;20.448;2023-03-21T04:34:44;31.35;;;21.27;;
57029;SDS011;42920;45.306;20.448;2023-03-21T04:37:15;29.05;;;21.42;;
57029;SDS011;42920;45.306;20.448;2023-03-21T04:39:41;27.27;;;19.40;;
57029;SDS011;42920;45.306;20.448;2023-03-21T04:42:07;29.20;;;19.13;;
57029;SDS011;42920;45.306;20.448;2023-03-21T04:44:33;28.58;;;19.92;;
57029;SDS011;42920;45.306;20.448;2023-03-21T04:46:58;30.08;;;20.15;;
57029;SDS011;42920;45.306;20.448;2023-03-21T04:49:24;27.83;;;19.50;;
57029;SDS011;42920;45.306;20.448;2023-03-21T04:51:50;25.73;;;18.63;;
57029;SDS011;42920;45.306;20.448;2023-03-21T04:54:16;27.77;;;18.70;;
57029;SDS011;42920;45.306;20.448;2023-03-21T04:56:42;28.42;;;20.08;;
57029;SDS011;42920;45.306;20.448;2023-03-21T04:59:09;26.60;;;19.40;;
57029;SDS011;42920;45.306;20.448;2023-03-21T05:01:37;28.95;;;18.98;;
57029;SDS011;42920;45.306;20.448;2023-03-21T05:04:05;31.13;;;19.15;;
57029;SDS011;42920;45.306;20.448;2023-03-21T05:06:31;28.52;;;19.02;;
57029;SDS011;42920;45.306;20.448;2023-03-21T05:08:58;29.63;;;19.35;;
57029;SDS011;42920;45.306;20.448;2023-03-21T05:11:25;29.15;;;19.60;;
57029;SDS011;42920;45.306;20.448;2023-03-21T05:13:52;27.60;;;18.90;;
57029;SDS011;42920;45.306;20.448;2023-03-21T05:16:17;28.67;;;19.42;;
57029;SDS011;42920;45.306;20.448;2023-03-21T05:18:43;26.70;;;17.98;;
57029;SDS011;42920;45.306;20.448;2023-03-21T05:21:08;26.67;;;18.33;;
57029;SDS011;42920;45.306;20.448;2023-03-21T05:23:35;29.08;;;18.58;;
57029;SDS011;42920;45.306;20.448;2023-03-21T05:26:04;26.65;;;19.50;;
57029;SDS011;42920;45.306;20.448;2023-03-21T05:28:32;28.17;;;18.98;;
57029;SDS011;42920;45.306;20.448;2023-03-21T05:31:01;28.00;;;19.17;;
57029;SDS011;42920;45.306;20.448;2023-03-21T05:33:27;31.65;;;21.25;;
57029;SDS011;42920;45.306;20.448;2023-03-21T05:35:53;29.85;;;19.98;;
57029;SDS011;42920;45.306;20.448;2023-03-21T05:38:19;28.02;;;19.42;;
57029;SDS011;42920;45.306;20.448;2023-03-21T05:40:46;26.55;;;20.15;;
57029;SDS011;42920;45.306;20.448;2023-03-21T05:43:12;26.63;;;19.00;;
57029;SDS011;42920;45.306;20.448;2023-03-21T05:45:38;27.23;;;20.70;;
57029;SDS011;42920;45.306;20.448;2023-03-21T05:48:04;29.55;;;20.00;;
57029;SDS011;42920;45.306;20.448;2023-03-21T05:50:30;41.78;;;24.65;;
57029;SDS011;42920;45.306;20.448;2023-03-21T05:52:56;42.05;;;25.42;;
57029;SDS011;42920;45.306;20.448;2023-03-21T05:55:22;60.60;;;32.97;;
57029;SDS011;42920;45.306;20.448;2023-03-21T05:57:47;73.85;;;39.25;;
57029;SDS011;42920;45.306;20.448;2023-03-21T06:00:13;62.75;;;33.85;;
57029;SDS011;42920;45.306;20.448;2023-03-21T06:02:40;51.13;;;28.75;;
57029;SDS011;42920;45.306;20.448;2023-03-21T06:05:06;62.15;;;32.75;;
57029;SDS011;42920;45.306;20.448;2023-03-21T06:07:32;60.88;;;32.42;;
57029;SDS011;42920;45.306;20.448;2023-03-21T06:09:59;47.47;;;27.05;;
57029;SDS011;42920;45.306;20.448;2023-03-21T06:12:25;38.88;;;22.13;;
57029;SDS011;42920;45.306;20.448;2023-03-21T06:14:50;29.02;;;19.40;;
57029;SDS011;42920;45.306;20.448;2023-03-21T06:17:16;30.75;;;19.65;;
57029;SDS011;42920;45.306;20.448;2023-03-21T06:19:42;25.25;;;19.17;;
57029;SDS011;42920;45.306;20.448;2023-03-21T06:22:08;27.70;;;18.90;;
57029;SDS011;42920;45.306;20.448;2023-03-21T06:24:33;29.13;;;20.05;;
57029;SDS011;42920;45.306;20.448;2023-03-21T06:26:59;29.23;;;21.08;;
57029;SDS011;42920;45.306;20.448;2023-03-21T06:29:25;26.35;;;18.70;;
57029;SDS011;42920;45.306;20.448;2023-03-21T06:31:50;39.75;;;21.20;;
57029;SDS011;42920;45.306;20.448;2023-03-21T06:34:16;27.35;;;18.17;;
57029;SDS011;42920;45.306;20.448;2023-03-21T06:36:42;30.10;;;19.10;;
57029;SDS011;42920;45.306;20.448;2023-03-21T06:39:08;25.33;;;17.05;;
57029;SDS011;42920;45.306;20.448;2023-03-21T06:41:34;23.45;;;17.15;;
57029;SDS011;42920;45.306;20.448;2023-03-21T06:44:00;28.88;;;18.75;;
57029;SDS011;42920;45.306;20.448;2023-03-21T06:46:26;33.10;;;19.50;;
57029;SDS011;42920;45.306;20.448;2023-03-21T06:48:52;27.60;;;17.85;;
57029;SDS011;42920;45.306;20.448;2023-03-21T06:51:18;27.40;;;18.63;;
57029;SDS011;42920;45.306;20.448;2023-03-21T06:53:44;26.85;;;17.88;;
57029;SDS011;42920;45.306;20.448;2023-03-21T06:56:10;27.67;;;18.13;;
57029;SDS011;42920;45.306;20.448;2023-03-21T06:58:37;23.80;;;17.63;;
57029;SDS011;42920;45.306;20.448;2023-03-21T07:01:03;22.83;;;17.05;;
57029;SDS011;42920;45.306;20.448;2023-03-21T07:03:30;28.77;;;17.58;;
57029;SDS011;42920;45.306;20.448;2023-03-21T07:05:57;28.75;;;19.17;;
57029;SDS011;42920;45.306;20.448;2023-03-21T07:08:23;24.83;;;17.55;;
57029;SDS011;42920;45.306;20.448;2023-03-21T07:10:48;27.80;;;18.92;;
57029;SDS011;42920;45.306;20.448;2023-03-21T07:13:14;28.63;;;18.83;;
57029;SDS011;42920;45.306;20.448;2023-03-21T07:15:40;22.75;;;17.17;;
57029;SDS011;42920;45.306;20.448;2023-03-21T07:18:07;34.75;;;17.85;;
57029;SDS011;42920;45.306;20.448;2023-03-21T07:20:34;26.30;;;17.20;;
57029;SDS011;42920;45.306;20.448;2023-03-21T07:23:02;24.77;;;16.92;;
57029;SDS011;42920;45.306;20.448;2023-03-21T07:25:28;23.70;;;17.73;;
57029;SDS011;42920;45.306;20.448;2023-03-21T07:27:54;27.17;;;18.27;;
57029;SDS011;42920;45.306;20.448;2023-03-21T07:30:20;29.60;;;20.35;;
57029;SDS011;42920;45.306;20.448;2023-03-21T07:32:46;24.52;;;18.05;;
57029;SDS011;42920;45.306;20.448;2023-03-21T07:35:13;27.83;;;17.55;;
57029;SDS011;42920;45.306;20.448;2023-03-21T07:37:40;31.65;;;19.30;;
57029;SDS011;42920;45.306;20.448;2023-03-21T07:40:07;25.98;;;18.48;;
57029;SDS011;42920;45.306;20.448;2023-03-21T07:42:34;27.80;;;18.20;;
57029;SDS011;42920;45.306;20.448;2023-03-21T07:45:04;30.48;;;18.73;;
57029;SDS011;42920;45.306;20.448;2023-03-21T07:47:31;24.67;;;17.85;;
57029;SDS011;42920;45.306;20.448;2023-03-21T07:49:58;33.45;;;19.23;;
57029;SDS011;42920;45.306;20.448;2023-03-21T07:52:24;30.58;;;16.80;;
57029;SDS011;42920;45.306;20.448;2023-03-21T07:54:50;23.10;;;16.70;;
57029;SDS011;42920;45.306;20.448;2023-03-21T07:57:16;25.77;;;15.50;;
57029;SDS011;42920;45.306;20.448;2023-03-21T07:59:42;22.55;;;15.55;;
57029;SDS011;42920;45.306;20.448;2023-03-21T08:02:14;24.92;;;18.17;;
57029;SDS011;42920;45.306;20.448;2023-03-21T08:04:41;25.13;;;16.70;;
57029;SDS011;42920;45.306;20.448;2023-03-21T08:07:07;28.02;;;17.02;;
57029;SDS011;42920;45.306;20.448;2023-03-21T08:09:33;23.65;;;17.48;;
57029;SDS011;42920;45.306;20.448;2023-03-21T08:11:58;29.52;;;18.92;;
57029;SDS011;42920;45.306;20.448;2023-03-21T08:14:24;25.83;;;16.20;;
57029;SDS011;42920;45.306;20.448;2023-03-21T08:16:50;23.77;;;17.52;;
57029;SDS011;42920;45.306;20.448;2023-03-21T08:19:15;26.67;;;16.33;;
57029;SDS011;42920;45.306;20.448;2023-03-21T08:21:44;26.15;;;16.92;;
57029;SDS011;42920;45.306;20.448;2023-03-21T08:24:10;24.10;;;16.13;;
57029;SDS011;42920;45.306;20.448;2023-03-21T08:26:36;24.80;;;16.75;;
57029;SDS011;42920;45.306;20.448;2023-03-21T08:29:02;19.10;;;15.13;;
57029;SDS011;42920;45.306;20.448;2023-03-21T08:31:28;24.90;;;15.55;;
57029;SDS011;42920;45.306;20.448;2023-03-21T08:33:54;21.40;;;15.93;;
57029;SDS011;42920;45.306;20.448;2023-03-21T08:36:21;25.60;;;15.45;;
57029;SDS011;42920;45.306;20.448;2023-03-21T08:38:47;20.48;;;15.93;;
57029;SDS011;42920;45.306;20.448;2023-03-21T08:41:15;23.83;;;15.93;;
57029;SDS011;42920;45.306;20.448;2023-03-21T08:43:41;25.67;;;15.85;;
57029;SDS011;42920;45.306;20.448;2023-03-21T08:46:06;22.70;;;15.27;;
57029;SDS011;42920;45.306;20.448;2023-03-21T08:48:32;23.73;;;15.15;;
57029;SDS011;42920;45.306;20.448;2023-03-21T08:51:01;21.92;;;15.38;;
57029;SDS011;42920;45.306;20.448;2023-03-21T08:53:26;24.65;;;15.90;;
57029;SDS011;42920;45.306;20.448;2023-03-21T08:55:53;21.67;;;15.93;;
57029;SDS011;42920;45.306;20.448;2023-03-21T08:58:19;25.38;;;16.67;;
57029;SDS011;42920;45.306;20.448;2023-03-21T09:00:45;23.95;;;15.68;;
57029;SDS011;42920;45.306;20.448;2023-03-21T09:03:10;22.02;;;16.35;;
57029;SDS011;42920;45.306;20.448;2023-03-21T09:05:36;19.85;;;14.20;;
57029;SDS011;42920;45.306;20.448;2023-03-21T09:08:02;23.05;;;15.25;;
57029;SDS011;42920;45.306;20.448;2023-03-21T09:10:29;22.67;;;15.50;;
57029;SDS011;42920;45.306;20.448;2023-03-21T09:12:55;21.58;;;13.82;;
57029;SDS011;42920;45.306;20.448;2023-03-21T09:15:22;22.33;;;14.45;;
57029;SDS011;42920;45.306;20.448;2023-03-21T09:17:49;20.73;;;13.77;;
57029;SDS011;42920;45.306;20.448;2023-03-21T09:20:17;19.98;;;13.77;;
57029;SDS011;42920;45.306;20.448;2023-03-21T09:22:48;16.83;;;12.02;;
57029;SDS011;42920;45.306;20.448;2023-03-21T09:25:16;19.35;;;13.80;;
57029;SDS011;42920;45.306;20.448;2023-03-21T09:27:43;20.33;;;13.85;;
57029;SDS011;42920;45.306;20.448;2023-03-21T09:30:13;18.48;;;13.18;;
57029;SDS011;42920;45.306;20.448;2023-03-21T09:32:41;19.42;;;13.63;;
57029;SDS011;42920;45.306;20.448;2023-03-21T09:35:11;18.80;;;13.63;;
57029;SDS011;42920;45.306;20.448;2023-03-21T09:37:37;22.85;;;14.63;;
57029;SDS011;42920;45.306;20.448;2023-03-21T09:40:08;21.05;;;13.88;;
57029;SDS011;42920;45.306;20.448;2023-03-21T09:51:01;22.45;;;14.60;;
57029;SDS011;42920;45.306;20.448;2023-03-21T09:53:32;21.85;;;14.70;;
57029;SDS011;42920;45.306;20.448;2023-03-21T09:56:03;22.60;;;14.35;;
57029;SDS011;42920;45.306;20.448;2023-03-21T09:58:38;24.38;;;14.57;;
57029;SDS011;42920;45.306;20.448;2023-03-21T10:01:20;18.92;;;14.57;;
57029;SDS011;42920;45.306;20.448;2023-03-21T10:04:01;20.30;;;14.93;;
57029;SDS011;42920;45.306;20.448;2023-03-21T10:06:30;18.73;;;13.30;;
57029;SDS011;42920;45.306;20.448;2023-03-21T10:09:03;20.98;;;14.02;;
57029;SDS011;42920;45.306;20.448;2023-03-21T10:14:34;18.42;;;12.98;;
57029;SDS011;42920;45.306;20.448;2023-03-21T10:17:38;17.95;;;12.52;;
57029;SDS011;42920;45.306;20.448;2023-03-21T10:20:17;22.00;;;14.43;;
57029;SDS011;42920;45.306;20.448;2023-03-21T10:22:46;19.65;;;14.02;;
57029;SDS011;42920;45.306;20.448;2023-03-21T10:25:16;22.08;;;14.48;;
57029;SDS011;42920;45.306;20.448;2023-03-21T10:27:47;20.60;;;14.18;;
57029;SDS011;42920;45.306;20.448;2023-03-21T10:33:37;18.63;;;11.80;;
57029;SDS011;42920;45.306;20.448;2023-03-21T10:38:35;21.85;;;12.85;;
57029;SDS011;42920;45.306;20.448;2023-03-21T10:41:05;18.88;;;12.77;;
57029;SDS011;42920;45.306;20.448;2023-03-21T10:43:33;17.88;;;13.15;;
57029;SDS011;42920;45.306;20.448;2023-03-21T10:46:05;18.23;;;11.57;;
57029;SDS011;42920;45.306;20.448;2023-03-21T10:48:51;15.88;;;11.75;;
57029;SDS011;42920;45.306;20.448;2023-03-21T10:51:19;15.63;;;11.75;;
57029;SDS011;42920;45.306;20.448;2023-03-21T10:53:55;15.38;;;11.60;;
57029;SDS011;42920;45.306;20.448;2023-03-21T10:56:30;16.48;;;10.98;;
57029;SDS011;42920;45.306;20.448;2023-03-21T10:59:00;17.17;;;12.73;;
57029;SDS011;42920;45.306;20.448;2023-03-21T11:01:33;15.18;;;11.13;;
57029;SDS011;42920;45.306;20.448;2023-03-21T11:04:16;14.73;;;11.43;;
57029;SDS011;42920;45.306;20.448;2023-03-21T11:06:50;14.60;;;11.52;;
57029;SDS011;42920;45.306;20.448;2023-03-21T11:09:20;14.95;;;10.38;;
57029;SDS011;42920;45.306;20.448;2023-03-21T11:17:22;9.75;;;7.10;;
57029;SDS011;42920;45.306;20.448;2023-03-21T11:19:59;10.48;;;7.60;;
57029;SDS011;42920;45.306;20.448;2023-03-21T11:22:40;9.73;;;6.72;;
57029;SDS011;42920;45.306;20.448;2023-03-21T11:25:09;9.60;;;6.97;;
57029;SDS011;42920;45.306;20.448;2023-03-21T11:27:48;11.25;;;7.20;;
57029;SDS011;42920;45.306;20.448;2023-03-21T11:30:25;13.73;;;8.23;;
57029;SDS011;42920;45.306;20.448;2023-03-21T11:32:55;10.18;;;7.35;;
57029;SDS011;42920;45.306;20.448;2023-03-21T11:35:33;11.18;;;6.68;;
57029;SDS011;42920;45.306;20.448;2023-03-21T11:38:01;8.40;;;6.35;;
57029;SDS011;42920;45.306;20.448;2023-03-21T11:40:34;8.90;;;6.68;;
57029;SDS011;42920;45.306;20.448;2023-03-21T11:45:54;10.73;;;6.55;;
57029;SDS011;42920;45.306;20.448;2023-03-21T11:48:24;7.35;;;5.38;;
57029;SDS011;42920;45.306;20.448;2023-03-21T11:50:52;8.68;;;6.05;;
57029;SDS011;42920;45.306;20.448;2023-03-21T12:01:36;8.50;;;5.60;;
57029;SDS011;42920;45.306;20.448;2023-03-21T12:07:24;8.23;;;4.70;;
57029;SDS011;42920;45.306;20.448;2023-03-21T12:21:19;8.30;;;5.90;;
57029;SDS011;42920;45.306;20.448;2023-03-21T12:32:16;7.20;;;4.85;;
57029;SDS011;42920;45.306;20.448;2023-03-21T12:37:21;7.38;;;5.30;;
57029;SDS011;42920;45.306;20.448;2023-03-21T12:39:58;6.95;;;4.90;;
57029;SDS011;42920;45.306;20.448;2023-03-21T12:42:45;6.68;;;4.45;;
57029;SDS011;42920;45.306;20.448;2023-03-21T12:45:19;9.60;;;5.25;;
57029;SDS011;42920;45.306;20.448;2023-03-21T12:47:55;9.55;;;4.97;;
57029;SDS011;42920;45.306;20.448;2023-03-21T12:50:37;8.48;;;3.83;;
57029;SDS011;42920;45.306;20.448;2023-03-21T12:53:23;5.38;;;3.30;;
57029;SDS011;42920;45.306;20.448;2023-03-21T12:56:03;7.95;;;4.95;;
57029;SDS011;42920;45.306;20.448;2023-03-21T12:58:40;12.35;;;6.15;;
57029;SDS011;42920;45.306;20.448;2023-03-21T13:01:10;6.85;;;3.50;;
57029;SDS011;42920;45.306;20.448;2023-03-21T13:03:41;5.97;;;4.13;;
57029;SDS011;42920;45.306;20.448;2023-03-21T13:11:09;5.05;;;3.28;;
57029;SDS011;42920;45.306;20.448;2023-03-21T13:13:43;6.10;;;3.50;;
57029;SDS011;42920;45.306;20.448;2023-03-21T13:27:37;4.22;;;2.20;;
57029;SDS011;42920;45.306;20.448;2023-03-21T13:32:38;5.13;;;2.58;;
57029;SDS011;42920;45.306;20.448;2023-03-21T13:35:19;4.07;;;2.53;;
57029;SDS011;42920;45.306;20.448;2023-03-21T13:37:57;6.15;;;2.53;;
57029;SDS011;42920;45.306;20.448;2023-03-21T13:59:17;8.57;;;3.25;;
57029;SDS011;42920;45.306;20.448;2023-03-21T14:02:03;9.18;;;2.95;;
57029;SDS011;42920;45.306;20.448;2023-03-21T14:04:51;7.93;;;3.63;;
57029;SDS011;42920;45.306;20.448;2023-03-21T14:07:24;6.20;;;2.97;;
57029;SDS011;42920;45.306;20.448;2023-03-21T14:09:56;7.97;;;3.20;;
57029;SDS011;42920;45.306;20.448;2023-03-21T14:12:39;7.63;;;3.17;;
57029;SDS011;42920;45.306;20.448;2023-03-21T14:15:14;6.88;;;3.65;;
57029;SDS011;42920;45.306;20.448;2023-03-21T14:22:53;6.43;;;3.58;;
57029;SDS011;42920;45.306;20.448;2023-03-21T14:25:20;6.28;;;3.33;;
57029;SDS011;42920;45.306;20.448;2023-03-21T14:27:49;7.43;;;3.72;;
57029;SDS011;42920;45.306;20.448;2023-03-21T14:30:25;7.45;;;3.72;;
57029;SDS011;42920;45.306;20.448;2023-03-21T14:32:57;5.50;;;2.97;;
57029;SDS011;42920;45.306;20.448;2023-03-21T14:35:41;8.02;;;3.72;;
57029;SDS011;42920;45.306;20.448;2023-03-21T14:38:21;7.20;;;3.63;;
57029;SDS011;42920;45.306;20.448;2023-03-21T14:40:50;6.00;;;3.55;;
57029;SDS011;42920;45.306;20.448;2023-03-21T14:43:18;6.07;;;3.58;;
57029;SDS011;42920;45.306;20.448;2023-03-21T14:45:52;9.48;;;3.42;;
57029;SDS011;42920;45.306;20.448;2023-03-21T14:48:20;10.57;;;3.78;;
57029;SDS011;42920;45.306;20.448;2023-03-21T14:51:11;6.57;;;2.80;;
57029;SDS011;42920;45.306;20.448;2023-03-21T14:53:37;7.70;;;3.13;;
57029;SDS011;42920;45.306;20.448;2023-03-21T14:56:06;14.75;;;2.72;;
57029;SDS011;42920;45.306;20.448;2023-03-21T14:58:45;14.27;;;3.13;;
57029;SDS011;42920;45.306;20.448;2023-03-21T15:01:16;8.85;;;2.92;;
57029;SDS011;42920;45.306;20.448;2023-03-21T15:03:51;10.45;;;4.80;;
57029;SDS011;42920;45.306;20.448;2023-03-21T15:06:16;16.63;;;5.13;;
57029;SDS011;42920;45.306;20.448;2023-03-21T15:08:58;10.23;;;2.97;;
57029;SDS011;42920;45.306;20.448;2023-03-21T15:11:31;7.50;;;2.60;;
57029;SDS011;42920;45.306;20.448;2023-03-21T15:14:03;8.32;;;3.05;;
57029;SDS011;42920;45.306;20.448;2023-03-21T15:16:31;3.65;;;2.40;;
57029;SDS011;42920;45.306;20.448;2023-03-21T15:18:58;17.67;;;6.25;;
57029;SDS011;42920;45.306;20.448;2023-03-21T15:21:26;20.13;;;6.15;;
57029;SDS011;42920;45.306;20.448;2023-03-21T15:24:01;11.45;;;4.05;;
57029;SDS011;42920;45.306;20.448;2023-03-21T15:26:37;7.90;;;3.35;;
57029;SDS011;42920;45.306;20.448;2023-03-21T15:29:04;12.10;;;4.60;;
57029;SDS011;42920;45.306;20.448;2023-03-21T15:31:33;13.75;;;5.30;;
57029;SDS011;42920;45.306;20.448;2023-03-21T15:34:00;8.50;;;3.50;;
57029;SDS011;42920;45.306;20.448;2023-03-21T15:36:30;11.07;;;5.50;;
57029;SDS011;42920;45.306;20.448;2023-03-21T15:39:06;7.88;;;4.38;;
57029;SDS011;42920;45.306;20.448;2023-03-21T15:41:36;8.75;;;4.72;;
57029;SDS011;42920;45.306;20.448;2023-03-21T15:46:41;7.65;;;4.10;;
57029;SDS011;42920;45.306;20.448;2023-03-21T15:54:19;12.10;;;4.80;;
57029;SDS011;42920;45.306;20.448;2023-03-21T15:56:52;8.80;;;3.10;;
57029;SDS011;42920;45.306;20.448;2023-03-21T15:59:26;9.40;;;5.13;;
57029;SDS011;42920;45.306;20.448;2023-03-21T16:01:55;10.07;;;5.47;;
57029;SDS011;42920;45.306;20.448;2023-03-21T16:04:21;8.23;;;3.97;;
57029;SDS011;42920;45.306;20.448;2023-03-21T16:07:12;17.23;;;7.18;;
57029;SDS011;42920;45.306;20.448;2023-03-21T16:09:43;11.10;;;6.18;;
57029;SDS011;42920;45.306;20.448;2023-03-21T16:12:13;14.00;;;7.60;;
57029;SDS011;42920;45.306;20.448;2023-03-21T16:14:39;17.75;;;6.80;;
57029;SDS011;42920;45.306;20.448;2023-03-21T16:17:26;10.38;;;5.50;;
57029;SDS011;42920;45.306;20.448;2023-03-21T16:19:58;15.38;;;4.75;;
57029;SDS011;42920;45.306;20.448;2023-03-21T16:22:24;14.18;;;6.32;;
57029;SDS011;42920;45.306;20.448;2023-03-21T16:24:50;12.13;;;5.72;;
57029;SDS011;42920;45.306;20.448;2023-03-21T16:27:16;13.95;;;6.60;;
57029;SDS011;42920;45.306;20.448;2023-03-21T16:29:43;17.25;;;7.10;;
57029;SDS011;42920;45.306;20.448;2023-03-21T16:32:13;18.95;;;8.25;;
57029;SDS011;42920;45.306;20.448;2023-03-21T16:34:40;18.52;;;9.73;;
57029;SDS011;42920;45.306;20.448;2023-03-21T16:37:09;27.15;;;13.50;;
57029;SDS011;42920;45.306;20.448;2023-03-21T16:39:36;34.53;;;14.50;;
57029;SDS011;42920;45.306;20.448;2023-03-21T16:42:02;24.25;;;15.30;;
57029;SDS011;42920;45.306;20.448;2023-03-21T16:44:28;24.33;;;11.93;;
57029;SDS011;42920;45.306;20.448;2023-03-21T16:46:54;20.73;;;13.15;;
57029;SDS011;42920;45.306;20.448;2023-03-21T16:49:24;27.73;;;15.23;;
57029;SDS011;42920;45.306;20.448;2023-03-21T16:51:51;25.08;;;18.38;;
57029;SDS011;42920;45.306;20.448;2023-03-21T16:54:19;29.25;;;17.92;;